Time;durP1;ratioP1;P1;durP2;ratioP2;P2;SDS_P1;SDS_P2;PMS_P1;PMS_P2;Temp;Humidity;BMP_temperature;BMP_pressure;BME280_temperature;BME280_humidity;BME280_pressure;Samples;Min_cycle;Max_cycle;Signal;HPM_P1;HPM_P2
2023/01/16 00:01:20;;;;;;;0.83;0.60;;;5.60;99.90;;;;;;4989741;28;20210;-73
2023/01/16 00:03:47;;;;;;;0.80;0.60;;;5.60;99.90;;;;;;4989773;28;20661;-74
2023/01/16 00:06:14;;;;;;;2.20;0.87;;;5.60;99.90;;;;;;4990431;28;20213;-73
2023/01/16 00:08:46;;;;;;;1.27;0.70;;;5.60;99.90;;;;;;4990344;28;20238;-73
2023/01/16 00:11:14;;;;;;;1.57;0.77;;;5.60;99.90;;;;;;4990232;28;20201;-74
2023/01/16 00:13:41;;;;;;;0.67;0.60;;;5.60;99.90;;;;;;4990461;28;20213;-73
2023/01/16 00:16:08;;;;;;;1.57;0.57;;;5.60;99.90;;;;;;4989944;28;20697;-74
2023/01/16 00:18:35;;;;;;;0.90;0.50;;;5.60;99.90;;;;;;4989767;28;20716;-74
2023/01/16 00:21:03;;;;;;;0.80;0.50;;;5.60;99.90;;;;;;4990192;28;20220;-74
2023/01/16 00:23:30;;;;;;;1.70;0.60;;;5.60;99.90;;;;;;5005369;28;20332;-72
2023/01/16 00:25:56;;;;;;;1.93;0.70;;;5.60;99.90;;;;;;4990400;28;20230;-72
2023/01/16 00:28:25;;;;;;;0.67;0.60;;;5.60;99.90;;;;;;4989882;28;20238;-72
2023/01/16 00:30:52;;;;;;;1.63;0.60;;;5.60;99.90;;;;;;4989605;28;20737;-72
2023/01/16 00:33:19;;;;;;;1.63;0.50;;;5.60;99.90;;;;;;4989219;28;20777;-73
2023/01/16 00:35:47;;;;;;;2.50;0.70;;;5.60;99.90;;;;;;4989899;28;20289;-72
2023/01/16 00:38:14;;;;;;;0.87;0.67;;;5.50;99.90;;;;;;4989853;28;20612;-72
2023/01/16 00:40:41;;;;;;;1.93;0.47;;;5.50;99.90;;;;;;4990277;28;20620;-78
2023/01/16 00:43:08;;;;;;;0.97;0.80;;;5.50;99.90;;;;;;4989934;28;20202;-76
2023/01/16 00:45:36;;;;;;;0.87;0.73;;;5.50;99.90;;;;;;4989572;28;20212;-76
2023/01/16 00:48:03;;;;;;;1.60;0.70;;;5.50;99.90;;;;;;4970983;28;20972;-78
2023/01/16 00:50:30;;;;;;;1.27;0.50;;;5.50;99.90;;;;;;4985056;28;20293;-76
2023/01/16 00:52:57;;;;;;;2.03;0.87;;;5.50;99.90;;;;;;4989770;28;20288;-76
2023/01/16 00:55:24;;;;;;;1.27;0.67;;;5.50;99.90;;;;;;4989208;28;20294;-76
2023/01/16 00:57:51;;;;;;;1.00;0.60;;;5.40;99.90;;;;;;4989298;28;20210;-77
2023/01/16 01:00:20;;;;;;;1.63;0.70;;;5.40;99.90;;;;;;4989383;28;20237;-76
2023/01/16 01:02:49;;;;;;;1.00;0.60;;;5.40;99.90;;;;;;4988848;28;20708;-77
2023/01/16 01:05:16;;;;;;;0.87;0.70;;;5.40;99.90;;;;;;4988863;28;20673;-76
2023/01/16 01:07:43;;;;;;;2.00;0.60;;;5.40;99.90;;;;;;4989287;28;21151;-76
2023/01/16 01:10:10;;;;;;;0.70;0.60;;;5.40;99.90;;;;;;4989188;28;21114;-77
2023/01/16 01:12:37;;;;;;;1.93;0.67;;;5.40;99.90;;;;;;4989413;28;20213;-76
2023/01/16 01:15:05;;;;;;;0.70;0.70;;;5.40;99.90;;;;;;4989189;28;20732;-77
2023/01/16 01:17:32;;;;;;;0.80;0.60;;;5.40;99.90;;;;;;4988586;28;20261;-76
2023/01/16 01:20:01;;;;;;;1.37;0.70;;;5.30;99.90;;;;;;4987911;28;20245;-76
2023/01/16 01:22:28;;;;;;;0.87;0.50;;;5.30;99.90;;;;;;4978028;28;20245;-76
2023/01/16 01:24:54;;;;;;;0.40;0.40;;;5.30;99.90;;;;;;4988973;28;20238;-76
2023/01/16 01:27:21;;;;;;;2.43;0.60;;;5.30;99.90;;;;;;4988886;28;20595;-77
2023/01/16 01:29:48;;;;;;;0.37;0.33;;;5.30;99.90;;;;;;4989177;28;20662;-77
2023/01/16 01:32:15;;;;;;;0.60;0.60;;;5.20;99.90;;;;;;4988698;28;21075;-77
2023/01/16 01:34:42;;;;;;;1.67;0.70;;;5.20;99.90;;;;;;4989146;28;20668;-76
2023/01/16 01:37:10;;;;;;;1.07;0.60;;;5.20;99.90;;;;;;4988596;28;20330;-77
2023/01/16 01:39:37;;;;;;;1.47;0.73;;;5.20;99.90;;;;;;4988923;28;20220;-77
2023/01/16 01:44:54;;;;;;;0.97;0.40;;;5.10;99.90;;;;;;4989005;28;20205;-77
2023/01/16 01:47:26;;;;;;;1.03;0.70;;;5.10;99.90;;;;;;4986247;28;20216;-77
2023/01/16 01:49:55;;;;;;;0.90;0.60;;;5.10;99.90;;;;;;4988858;28;20222;-77
2023/01/16 01:52:25;;;;;;;0.57;0.57;;;5.10;99.90;;;;;;4988863;28;20296;-76
2023/01/16 01:54:56;;;;;;;1.47;0.70;;;5.10;99.90;;;;;;4988475;28;20302;-77
2023/01/16 01:57:27;;;;;;;0.90;0.80;;;5.10;99.90;;;;;;4988174;28;20195;-75
2023/01/16 01:59:59;;;;;;;0.97;0.50;;;5.10;99.90;;;;;;4988343;28;20301;-74
2023/01/16 02:02:31;;;;;;;1.87;0.77;;;5.10;99.90;;;;;;4987878;28;20214;-76
2023/01/16 02:04:58;;;;;;;0.53;0.50;;;5.10;99.90;;;;;;4988333;28;20205;-75
2023/01/16 02:07:28;;;;;;;1.03;0.53;;;5.10;99.90;;;;;;4988191;28;20212;-75
2023/01/16 02:10:02;;;;;;;1.37;0.30;;;5.10;99.90;;;;;;4988420;28;20230;-73
2023/01/16 02:12:29;;;;;;;0.70;0.70;;;5.10;99.90;;;;;;4988445;28;20202;-73
2023/01/16 02:14:57;;;;;;;0.87;0.40;;;5.20;99.90;;;;;;4993084;28;20237;-74
2023/01/16 02:20:18;;;;;;;0.40;0.40;;;5.20;99.90;;;;;;4977951;28;20212;-73
2023/01/16 02:23:21;;;;;;;1.10;0.40;;;5.20;99.90;;;;;;4988402;28;20277;-73
2023/01/16 02:26:12;;;;;;;1.33;0.37;;;5.20;99.90;;;;;;4972173;28;20266;-75
2023/01/16 02:29:16;;;;;;;1.07;0.50;;;5.30;99.90;;;;;;4972637;28;20229;-75
2023/01/16 02:31:51;;;;;;;0.70;0.40;;;5.20;99.90;;;;;;4972541;28;20334;-75
2023/01/16 02:34:36;;;;;;;0.30;0.30;;;5.20;99.90;;;;;;4972516;28;20293;-73
2023/01/16 02:37:15;;;;;;;1.50;0.60;;;5.10;99.90;;;;;;4972689;28;20298;-75
2023/01/16 02:39:51;;;;;;;0.50;0.40;;;5.10;99.90;;;;;;4989388;28;20723;-73
2023/01/16 02:42:27;;;;;;;2.10;0.70;;;5.10;99.90;;;;;;4991900;28;20218;-73
2023/01/16 02:45:02;;;;;;;2.23;0.77;;;5.10;99.90;;;;;;4991889;28;20289;-73
2023/01/16 02:47:37;;;;;;;1.00;0.53;;;5.20;99.90;;;;;;4975151;28;20237;-73
2023/01/16 02:50:12;;;;;;;0.63;0.60;;;5.20;99.90;;;;;;4972711;28;20258;-73
2023/01/16 02:52:44;;;;;;;0.83;0.40;;;5.20;99.90;;;;;;4972640;28;20222;-73
2023/01/16 02:55:17;;;;;;;0.60;0.53;;;5.30;99.90;;;;;;4985563;28;20651;-74
2023/01/16 02:57:50;;;;;;;2.63;0.67;;;5.30;99.90;;;;;;4991428;28;20214;-73
2023/01/16 03:00:19;;;;;;;2.50;0.73;;;5.40;99.90;;;;;;4988703;28;20297;-73
2023/01/16 03:02:47;;;;;;;2.17;0.50;;;5.40;99.90;;;;;;4977076;28;20210;-73
2023/01/16 03:05:14;;;;;;;1.23;0.57;;;5.40;99.90;;;;;;4991035;28;20309;-74
2023/01/16 03:08:13;;;;;;;0.50;0.33;;;5.30;99.90;;;;;;4991512;28;20264;-73
2023/01/16 03:10:57;;;;;;;0.93;0.60;;;5.40;99.90;;;;;;4991227;28;20649;-73
2023/01/16 03:13:42;;;;;;;0.53;0.40;;;5.40;99.90;;;;;;4991314;28;20226;-74
2023/01/16 03:16:18;;;;;;;1.70;0.60;;;5.40;99.90;;;;;;4991144;28;20329;-73
2023/01/16 03:18:54;;;;;;;1.80;0.50;;;5.40;99.90;;;;;;4975478;28;20293;-73
2023/01/16 03:21:31;;;;;;;1.20;0.50;;;5.40;99.90;;;;;;4971709;28;20305;-77
2023/01/16 03:24:03;;;;;;;1.97;0.70;;;5.40;99.90;;;;;;4988053;28;20202;-74
2023/01/16 03:26:37;;;;;;;1.53;0.80;;;5.40;99.90;;;;;;4990890;28;20333;-69
2023/01/16 03:29:12;;;;;;;2.17;0.63;;;5.40;99.90;;;;;;4991031;28;20309;-73
2023/01/16 03:31:43;;;;;;;1.60;0.67;;;5.40;99.90;;;;;;4991013;28;20198;-74
2023/01/16 03:34:20;;;;;;;1.87;0.60;;;5.40;99.90;;;;;;4988579;28;20205;-74
2023/01/16 03:36:53;;;;;;;1.40;0.60;;;5.40;99.90;;;;;;4987794;28;20202;-75
2023/01/16 03:39:26;;;;;;;0.43;0.43;;;5.40;99.90;;;;;;4988545;28;20217;-74
2023/01/16 03:41:58;;;;;;;0.47;0.33;;;5.40;99.90;;;;;;4988551;28;20253;-74
2023/01/16 03:44:30;;;;;;;2.00;0.97;;;5.40;99.90;;;;;;4988270;28;20236;-74
2023/01/16 03:47:03;;;;;;;2.13;0.60;;;5.30;99.90;;;;;;4988201;28;20642;-73
2023/01/16 03:49:35;;;;;;;1.67;0.80;;;5.30;99.90;;;;;;4988031;28;20234;-74
2023/01/16 03:52:05;;;;;;;1.20;0.50;;;5.30;99.90;;;;;;4987982;28;20220;-73
2023/01/16 03:54:37;;;;;;;1.50;0.83;;;5.30;99.90;;;;;;4987661;28;20224;-75
2023/01/16 03:57:09;;;;;;;1.03;0.50;;;5.30;99.90;;;;;;4987828;28;20216;-74
2023/01/16 03:59:39;;;;;;;1.17;0.50;;;5.20;99.90;;;;;;4970560;28;20290;-74
2023/01/16 04:02:12;;;;;;;1.27;0.57;;;5.30;99.90;;;;;;4975438;28;20281;-74
2023/01/16 04:04:45;;;;;;;1.67;0.50;;;5.20;99.90;;;;;;4989373;28;20218;-73
2023/01/16 04:07:17;;;;;;;1.37;0.40;;;5.20;99.90;;;;;;4988677;28;20658;-75
2023/01/16 04:09:50;;;;;;;1.17;0.60;;;5.20;99.90;;;;;;4988799;28;20305;-74
2023/01/16 04:12:21;;;;;;;1.90;0.77;;;5.20;99.90;;;;;;4988851;28;20333;-74
2023/01/16 04:14:53;;;;;;;1.63;0.70;;;5.20;99.90;;;;;;4988694;28;20195;-73
2023/01/16 04:17:20;;;;;;;1.43;0.83;;;5.20;99.90;;;;;;4988433;28;20325;-74
2023/01/16 04:19:48;;;;;;;2.37;0.80;;;5.20;99.90;;;;;;4988422;28;20639;-73
2023/01/16 04:22:20;;;;;;;0.57;0.40;;;5.20;99.90;;;;;;4989301;28;20213;-73
2023/01/16 04:24:49;;;;;;;1.27;0.30;;;5.20;99.90;;;;;;4989854;28;20708;-73
2023/01/16 04:27:16;;;;;;;1.67;0.53;;;5.20;99.90;;;;;;4989751;28;20217;-73
2023/01/16 04:29:43;;;;;;;1.23;0.50;;;5.10;99.90;;;;;;4989963;28;20264;-74
2023/01/16 04:32:10;;;;;;;1.90;0.60;;;5.20;99.90;;;;;;4989728;28;20681;-74
2023/01/16 04:34:37;;;;;;;1.03;0.70;;;5.20;99.90;;;;;;4989592;28;20225;-73
2023/01/16 04:37:05;;;;;;;1.57;0.60;;;5.10;99.90;;;;;;4989411;28;20676;-74
2023/01/16 04:39:32;;;;;;;0.80;0.63;;;5.10;99.90;;;;;;4989739;28;20210;-73
2023/01/16 04:41:59;;;;;;;0.63;0.63;;;5.10;99.90;;;;;;4989865;28;20344;-73
2023/01/16 04:44:26;;;;;;;3.60;0.70;;;5.10;99.90;;;;;;4989351;28;20297;-74
2023/01/16 04:46:53;;;;;;;4.57;1.00;;;5.10;99.90;;;;;;4989341;28;20253;-74
2023/01/16 04:49:20;;;;;;;0.87;0.67;;;5.10;99.90;;;;;;4989175;28;20233;-73
2023/01/16 04:51:47;;;;;;;1.57;0.50;;;5.00;99.90;;;;;;4989335;28;20743;-73
2023/01/16 04:54:17;;;;;;;1.67;0.77;;;5.10;99.90;;;;;;4988944;28;20297;-74
2023/01/16 04:56:45;;;;;;;0.83;0.83;;;5.00;99.90;;;;;;4989463;28;20575;-73
2023/01/16 04:59:13;;;;;;;0.87;0.70;;;5.00;99.90;;;;;;4989231;28;20228;-73
2023/01/16 05:01:40;;;;;;;0.67;0.50;;;5.00;99.90;;;;;;4989476;28;20210;-74
2023/01/16 05:04:08;;;;;;;1.40;0.50;;;5.00;99.90;;;;;;4988618;28;20245;-73
2023/01/16 05:06:36;;;;;;;0.97;0.70;;;5.00;99.90;;;;;;4989113;28;20293;-73
2023/01/16 05:09:05;;;;;;;0.77;0.60;;;5.00;99.90;;;;;;4988664;28;20309;-74
2023/01/16 05:11:34;;;;;;;1.07;0.70;;;5.00;99.90;;;;;;4988858;28;20206;-73
2023/01/16 05:14:01;;;;;;;0.97;0.50;;;5.00;99.90;;;;;;4989076;28;20213;-74
2023/01/16 05:16:28;;;;;;;1.40;0.77;;;5.00;99.90;;;;;;4988477;28;20249;-73
2023/01/16 05:18:55;;;;;;;2.60;0.73;;;5.00;99.90;;;;;;4988713;28;20666;-73
2023/01/16 05:21:22;;;;;;;1.10;1.00;;;5.00;99.90;;;;;;4988764;28;20638;-73
2023/01/16 05:23:49;;;;;;;1.00;0.60;;;4.90;99.90;;;;;;4969331;28;20202;-73
2023/01/16 05:26:16;;;;;;;1.30;0.70;;;4.90;99.90;;;;;;4969103;28;20289;-73
2023/01/16 05:28:44;;;;;;;3.07;0.90;;;5.00;99.90;;;;;;4969144;28;20776;-74
2023/01/16 05:31:11;;;;;;;1.67;0.77;;;5.00;99.90;;;;;;4968860;28;20231;-73
2023/01/16 05:33:38;;;;;;;1.27;0.60;;;4.90;99.90;;;;;;4968912;28;20305;-73
2023/01/16 05:36:06;;;;;;;1.13;0.70;;;5.00;99.90;;;;;;4968948;28;20295;-73
2023/01/16 05:38:33;;;;;;;1.53;0.80;;;4.90;99.90;;;;;;4968981;28;20242;-73
2023/01/16 05:40:59;;;;;;;1.00;0.70;;;4.90;99.90;;;;;;4968723;28;20293;-74
2023/01/16 05:43:27;;;;;;;2.27;0.73;;;5.00;99.90;;;;;;4968524;28;20733;-73
2023/01/16 05:45:55;;;;;;;1.93;0.97;;;4.90;99.90;;;;;;4978977;28;20254;-73
2023/01/16 05:48:25;;;;;;;1.53;0.93;;;4.90;99.90;;;;;;4987553;28;20799;-74
2023/01/16 05:50:52;;;;;;;1.43;0.67;;;5.00;99.90;;;;;;4988357;28;20240;-73
2023/01/16 05:53:19;;;;;;;3.40;1.13;;;4.90;99.90;;;;;;4987875;28;20578;-73
2023/01/16 05:55:47;;;;;;;2.57;1.10;;;4.90;99.90;;;;;;4988136;28;20227;-73
2023/01/16 05:58:16;;;;;;;1.60;0.93;;;4.90;99.90;;;;;;4983973;28;20217;-73
2023/01/16 06:00:44;;;;;;;2.47;0.90;;;5.00;99.90;;;;;;4987721;28;20715;-73
2023/01/16 06:03:12;;;;;;;2.67;0.57;;;5.00;99.90;;;;;;4987983;28;20596;-74
2023/01/16 06:05:39;;;;;;;2.10;0.80;;;5.00;99.90;;;;;;4987923;28;20655;-74
2023/01/16 06:08:06;;;;;;;1.60;0.90;;;5.00;99.90;;;;;;4987644;28;20971;-73
2023/01/16 06:10:32;;;;;;;0.80;0.80;;;5.00;99.90;;;;;;4987657;28;20328;-73
2023/01/16 06:13:01;;;;;;;2.00;1.13;;;5.00;99.90;;;;;;4988135;28;20230;-74
2023/01/16 06:15:28;;;;;;;2.00;0.70;;;5.00;99.90;;;;;;4987848;28;20198;-73
2023/01/16 06:17:56;;;;;;;1.57;0.90;;;5.00;99.90;;;;;;4987779;28;20241;-73
2023/01/16 06:20:24;;;;;;;2.33;1.00;;;5.00;99.90;;;;;;4987829;28;20206;-73
2023/01/16 06:22:51;;;;;;;2.33;0.93;;;4.90;99.90;;;;;;4987937;28;20326;-73
2023/01/16 06:25:18;;;;;;;1.17;0.90;;;4.90;99.90;;;;;;4987406;28;20725;-73
2023/01/16 06:27:48;;;;;;;1.10;0.73;;;5.00;99.90;;;;;;4987990;28;20308;-73
2023/01/16 06:30:16;;;;;;;0.83;0.83;;;4.90;99.90;;;;;;4987555;28;20265;-73
2023/01/16 06:32:43;;;;;;;2.43;0.80;;;5.00;99.90;;;;;;4987520;28;20217;-74
2023/01/16 06:35:10;;;;;;;1.27;0.60;;;5.00;99.90;;;;;;4988102;28;20248;-73
2023/01/16 06:37:38;;;;;;;1.00;0.90;;;5.00;99.90;;;;;;4987716;28;20220;-73
2023/01/16 06:40:06;;;;;;;1.17;0.73;;;4.90;99.90;;;;;;4975088;28;20214;-73
2023/01/16 06:42:33;;;;;;;2.03;0.67;;;5.00;99.90;;;;;;4981536;28;20572;-74
2023/01/16 06:45:00;;;;;;;1.33;0.80;;;5.00;99.90;;;;;;4988134;28;20575;-74
2023/01/16 06:47:28;;;;;;;1.93;1.03;;;5.00;99.90;;;;;;4987638;28;20238;-74
2023/01/16 06:49:55;;;;;;;1.27;0.70;;;4.90;99.90;;;;;;4987704;28;20240;-73
2023/01/16 06:52:22;;;;;;;1.67;0.80;;;4.90;99.90;;;;;;4987648;28;20305;-73
2023/01/16 06:54:50;;;;;;;1.53;0.83;;;4.90;99.90;;;;;;4987902;28;20297;-74
2023/01/16 06:57:17;;;;;;;1.03;0.83;;;4.90;99.90;;;;;;4987363;28;20660;-74
2023/01/16 06:59:44;;;;;;;3.33;0.60;;;5.00;99.90;;;;;;4987339;28;20210;-73
2023/01/16 07:02:11;;;;;;;0.90;0.77;;;5.00;99.90;;;;;;4987393;28;20246;-74
2023/01/16 07:04:37;;;;;;;1.43;0.80;;;4.90;99.90;;;;;;4987448;28;20210;-76
2023/01/16 07:07:04;;;;;;;1.77;0.83;;;5.00;99.90;;;;;;4987753;28;20212;-74
2023/01/16 07:09:32;;;;;;;2.60;1.30;;;5.00;99.90;;;;;;4987551;28;20293;-74
2023/01/16 07:12:00;;;;;;;3.27;1.30;;;4.90;99.90;;;;;;4991259;28;20669;-74
2023/01/16 07:22:45;;;;;;;0.87;0.70;;;5.00;99.90;;;;;;4990992;28;20220;-74
2023/01/16 07:25:15;;;;;;;1.63;0.77;;;4.90;99.90;;;;;;4990473;28;20230;-74
2023/01/16 07:27:47;;;;;;;2.00;0.80;;;4.90;99.90;;;;;;4991058;28;20194;-74
2023/01/16 07:30:15;;;;;;;2.00;0.93;;;4.90;99.90;;;;;;4990390;28;20230;-73
2023/01/16 07:32:43;;;;;;;1.80;0.80;;;4.90;99.90;;;;;;4990479;28;20296;-74
2023/01/16 07:35:10;;;;;;;1.83;1.10;;;4.90;99.90;;;;;;4987501;28;20241;-74
2023/01/16 07:37:38;;;;;;;3.70;1.07;;;4.90;99.90;;;;;;4970908;28;20670;-74
2023/01/16 07:40:06;;;;;;;3.93;0.83;;;4.90;99.90;;;;;;4983092;28;20735;-74
2023/01/16 07:42:33;;;;;;;1.07;0.83;;;4.90;99.90;;;;;;4990387;28;20301;-74
2023/01/16 07:45:01;;;;;;;3.53;1.20;;;4.90;99.90;;;;;;4990707;28;20288;-74
2023/01/16 07:47:28;;;;;;;2.33;0.90;;;4.90;99.90;;;;;;4990306;28;20218;-74
2023/01/16 07:49:56;;;;;;;2.73;1.00;;;4.90;99.90;;;;;;4990847;28;20220;-74
2023/01/16 07:52:23;;;;;;;2.60;0.80;;;4.90;99.90;;;;;;4990538;28;20218;-74
2023/01/16 07:54:50;;;;;;;0.87;0.87;;;4.90;99.90;;;;;;4990440;28;20233;-74
2023/01/16 07:57:17;;;;;;;1.27;0.87;;;4.90;99.90;;;;;;4983678;28;20310;-73
2023/01/16 07:59:44;;;;;;;1.33;0.90;;;4.80;99.90;;;;;;4970767;28;20301;-74
2023/01/16 08:02:12;;;;;;;0.80;0.80;;;4.80;99.90;;;;;;4970990;28;20211;-74
2023/01/16 08:04:39;;;;;;;1.20;0.90;;;4.90;99.90;;;;;;4970271;28;20302;-74
2023/01/16 08:07:06;;;;;;;1.17;0.83;;;4.80;99.90;;;;;;4970596;28;20736;-74
2023/01/16 08:09:33;;;;;;;0.87;0.87;;;4.80;99.90;;;;;;4970233;28;20328;-73
2023/01/16 08:12:00;;;;;;;2.73;1.00;;;4.90;99.90;;;;;;4970378;28;20701;-74
2023/01/16 08:14:27;;;;;;;1.20;0.73;;;4.80;99.90;;;;;;4970748;28;20273;-74
2023/01/16 08:16:54;;;;;;;1.77;0.60;;;4.90;99.90;;;;;;4982160;28;20341;-74
2023/01/16 08:19:22;;;;;;;2.57;0.73;;;4.90;99.90;;;;;;4989702;28;20214;-74
2023/01/16 08:21:49;;;;;;;1.00;0.80;;;4.90;99.90;;;;;;4992447;28;20706;-74
2023/01/16 08:24:16;;;;;;;0.60;0.60;;;4.90;99.90;;;;;;5009232;28;20316;-74
2023/01/16 08:26:43;;;;;;;1.90;1.10;;;4.90;99.90;;;;;;5009235;28;20616;-74
2023/01/16 08:29:10;;;;;;;1.40;0.70;;;4.90;99.90;;;;;;5009224;28;20304;-74
2023/01/16 08:31:37;;;;;;;1.30;0.90;;;4.90;99.90;;;;;;5003846;28;20723;-74
2023/01/16 08:34:04;;;;;;;1.80;0.70;;;5.00;99.90;;;;;;4989665;28;20622;-73
2023/01/16 08:36:32;;;;;;;2.43;0.83;;;5.00;99.90;;;;;;4989241;28;20237;-74
2023/01/16 08:38:59;;;;;;;4.70;0.93;;;5.10;99.90;;;;;;4989345;28;20296;-74
2023/01/16 08:52:30;;;;;;;1.07;0.77;;;5.30;99.90;;;;;;4989192;28;20664;-73
2023/01/16 08:54:58;;;;;;;1.67;0.77;;;5.40;99.90;;;;;;4989518;28;20221;-72
2023/01/16 08:57:25;;;;;;;1.77;1.07;;;5.40;99.90;;;;;;4970976;28;20210;-73
2023/01/16 08:59:52;;;;;;;1.53;0.83;;;5.50;99.90;;;;;;4969724;28;20317;-73
2023/01/16 09:02:20;;;;;;;3.30;1.00;;;5.50;99.90;;;;;;4969452;28;20210;-72
2023/01/16 09:04:47;;;;;;;0.80;0.60;;;5.60;99.90;;;;;;4969570;28;20226;-72
2023/01/16 09:07:14;;;;;;;1.80;0.87;;;5.70;99.90;;;;;;4969499;28;20202;-72
2023/01/16 09:09:43;;;;;;;1.60;0.70;;;5.70;99.90;;;;;;4970112;28;20238;-73
2023/01/16 09:14:56;;;;;;;2.43;0.90;;;5.80;99.90;;;;;;4969923;28;20326;-73
2023/01/16 09:17:23;;;;;;;2.73;0.90;;;5.80;99.90;;;;;;4984763;28;20242;-73
2023/01/16 09:19:50;;;;;;;1.90;0.73;;;5.90;99.90;;;;;;4989035;28;20306;-73
2023/01/16 09:22:17;;;;;;;2.50;1.10;;;6.00;99.90;;;;;;4988731;28;20276;-73
2023/01/16 09:24:48;;;;;;;1.07;0.60;;;6.00;99.90;;;;;;4988716;28;20332;-74
2023/01/16 09:27:18;;;;;;;2.73;0.83;;;6.00;99.90;;;;;;4988805;28;20273;-72
2023/01/16 09:29:45;;;;;;;1.13;0.77;;;6.10;99.90;;;;;;4970705;28;20218;-73
2023/01/16 09:32:13;;;;;;;2.67;0.60;;;6.10;99.90;;;;;;4988408;28;20320;-73
2023/01/16 09:34:41;;;;;;;1.80;0.63;;;6.20;99.90;;;;;;4987568;28;20207;-75
2023/01/16 09:37:07;;;;;;;1.40;0.93;;;6.20;99.90;;;;;;4988648;28;20677;-73
2023/01/16 09:39:35;;;;;;;4.87;1.23;;;6.30;99.90;;;;;;4988291;28;20301;-73
2023/01/16 09:45:16;;;;;;;2.13;0.77;;;6.40;99.90;;;;;;4988201;28;20192;-73
2023/01/16 09:47:47;;;;;;;2.20;1.00;;;6.50;99.90;;;;;;4988541;28;20296;-73
2023/01/16 09:50:19;;;;;;;2.83;0.90;;;6.40;99.90;;;;;;4988180;28;20198;-73
2023/01/16 09:58:37;;;;;;;1.73;1.10;;;6.60;99.90;;;;;;4988337;28;20197;-73
2023/01/16 10:01:06;;;;;;;1.93;0.63;;;6.70;99.90;;;;;;4988674;28;20280;-73
2023/01/16 10:03:34;;;;;;;2.33;0.80;;;6.70;99.90;;;;;;4987826;28;20293;-73
2023/01/16 10:06:12;;;;;;;1.20;0.70;;;6.80;99.90;;;;;;4988280;28;20213;-73
2023/01/16 10:08:43;;;;;;;1.23;0.77;;;6.80;99.90;;;;;;4988204;28;20207;-73
2023/01/16 10:11:18;;;;;;;1.87;0.70;;;6.90;99.90;;;;;;4988139;28;20228;-74
2023/01/16 10:13:59;;;;;;;1.63;0.73;;;6.90;99.90;;;;;;4987885;28;20198;-73
2023/01/16 10:16:36;;;;;;;1.67;0.63;;;6.90;99.90;;;;;;4987388;28;20337;-73
2023/01/16 10:19:11;;;;;;;0.87;0.73;;;7.00;99.90;;;;;;4987861;28;20286;-74
2023/01/16 10:21:59;;;;;;;2.20;0.80;;;7.10;99.90;;;;;;5004217;28;20727;-74
2023/01/16 10:24:38;;;;;;;1.37;1.03;;;7.10;99.90;;;;;;4980639;28;20309;-73
2023/01/16 10:27:14;;;;;;;2.00;0.80;;;7.20;99.90;;;;;;4968475;28;20203;-73
2023/01/16 10:29:48;;;;;;;1.33;0.90;;;7.20;99.90;;;;;;4968389;28;20628;-73
2023/01/16 10:32:21;;;;;;;1.80;0.67;;;7.30;99.90;;;;;;4986342;28;20308;-73
2023/01/16 10:34:54;;;;;;;1.33;0.80;;;7.30;99.90;;;;;;4987487;28;20623;-74
2023/01/16 10:37:22;;;;;;;1.37;0.80;;;7.30;99.90;;;;;;4987517;28;20194;-73
2023/01/16 10:39:50;;;;;;;1.47;0.80;;;7.40;99.90;;;;;;4987401;28;20300;-75
2023/01/16 10:50:46;;;;;;;1.40;0.73;;;7.70;99.90;;;;;;4972256;28;20202;-74
2023/01/16 10:53:13;;;;;;;0.97;0.87;;;7.70;99.90;;;;;;4971717;28;20301;-75
2023/01/16 10:55:43;;;;;;;0.90;0.73;;;7.80;99.90;;;;;;4971509;28;20282;-74
2023/01/16 10:58:23;;;;;;;2.27;0.80;;;7.90;99.90;;;;;;4971930;28;20201;-74
2023/01/16 11:00:53;;;;;;;0.80;0.57;;;8.00;99.90;;;;;;4972051;28;20290;-74
2023/01/16 11:03:26;;;;;;;1.97;0.90;;;8.00;99.90;;;;;;4971521;28;20241;-73
2023/01/16 11:06:08;;;;;;;0.83;0.73;;;8.10;99.90;;;;;;4971787;28;20226;-73
2023/01/16 11:08:35;;;;;;;2.63;0.90;;;8.20;99.90;;;;;;4971872;28;20209;-73
2023/01/16 11:11:02;;;;;;;1.40;0.70;;;8.20;99.90;;;;;;4971264;28;20617;-73
2023/01/16 11:19:19;;;;;;;1.33;0.97;;;8.30;99.90;;;;;;4990691;28;20765;-73
2023/01/16 11:21:50;;;;;;;1.90;0.67;;;8.50;99.90;;;;;;4994101;28;20281;-74
2023/01/16 11:24:20;;;;;;;1.00;0.80;;;8.40;99.90;;;;;;4993249;28;20653;-73
2023/01/16 11:26:51;;;;;;;1.80;0.70;;;8.60;99.90;;;;;;4991176;28;20282;-73
2023/01/16 11:29:19;;;;;;;1.20;0.57;;;8.60;99.90;;;;;;4990956;28;20629;-74
2023/01/16 11:31:55;;;;;;;0.93;0.60;;;8.70;99.90;;;;;;4991188;28;20238;-74
2023/01/16 11:34:26;;;;;;;0.40;0.40;;;8.80;99.90;;;;;;4991077;28;20276;-73
2023/01/16 11:36:54;;;;;;;3.30;0.87;;;8.80;99.90;;;;;;4990963;28;20198;-74
2023/01/16 11:39:23;;;;;;;0.87;0.70;;;8.80;99.90;;;;;;4990648;28;20207;-74
2023/01/16 11:41:53;;;;;;;1.60;0.70;;;8.90;99.90;;;;;;4990470;28;20648;-74
2023/01/16 11:47:13;;;;;;;1.17;0.90;;;9.00;99.90;;;;;;4990617;28;20214;-73
2023/01/16 11:49:42;;;;;;;0.60;0.60;;;9.00;99.90;;;;;;4990596;28;20241;-73
2023/01/16 11:52:14;;;;;;;0.70;0.70;;;8.80;99.90;;;;;;4990382;28;20359;-74
2023/01/16 11:54:54;;;;;;;1.40;0.90;;;8.80;99.90;;;;;;4990309;28;20289;-74
2023/01/16 11:57:43;;;;;;;1.83;1.00;;;8.80;99.90;;;;;;4988933;28;20229;-74
2023/01/16 12:00:38;;;;;;;1.27;0.77;;;8.90;99.90;;;;;;4990546;28;20198;-74
2023/01/16 12:03:50;;;;;;;0.87;0.70;;;9.00;99.90;;;;;;4981612;28;20325;-74
2023/01/16 12:06:33;;;;;;;1.53;0.50;;;9.00;99.90;;;;;;4910577;29;20205;-73
2023/01/16 12:09:26;;;;;;;1.83;0.70;;;9.10;99.90;;;;;;4979413;28;20273;-74
2023/01/16 12:15:22;;;;;;;3.43;0.80;;;9.20;99.90;;;;;;4891450;29;20717;-74
2023/01/16 12:18:16;;;;;;;1.07;0.60;;;9.10;99.90;;;;;;4987871;28;20233;-75
2023/01/16 12:20:52;;;;;;;1.73;0.70;;;9.10;99.90;;;;;;4989458;28;20233;-74
2023/01/16 12:23:35;;;;;;;1.77;0.80;;;9.00;99.90;;;;;;4989689;28;20210;-73
2023/01/16 12:26:13;;;;;;;1.43;0.50;;;9.00;99.90;;;;;;4989597;28;20198;-74
2023/01/16 12:28:48;;;;;;;0.70;0.70;;;9.10;99.90;;;;;;4989779;28;20617;-73
2023/01/16 12:31:35;;;;;;;3.10;1.07;;;9.10;99.90;;;;;;4989517;28;20316;-74
2023/01/16 12:34:23;;;;;;;1.93;0.60;;;9.10;99.90;;;;;;4989187;28;20732;-74
2023/01/16 12:37:05;;;;;;;1.93;0.97;;;9.10;99.90;;;;;;4989147;28;20194;-73
2023/01/16 12:39:45;;;;;;;0.97;0.67;;;9.20;99.90;;;;;;4989273;28;20808;-74
2023/01/16 12:45:21;;;;;;;1.07;0.60;;;9.20;99.90;;;;;;4989351;28;20197;-74
2023/01/16 12:47:57;;;;;;;0.93;0.60;;;9.20;99.90;;;;;;4989325;28;20269;-74
2023/01/16 12:50:35;;;;;;;1.10;0.60;;;9.30;99.90;;;;;;4989146;28;20632;-73
2023/01/16 12:53:17;;;;;;;1.07;0.50;;;9.40;99.90;;;;;;4989371;28;20308;-74
2023/01/16 12:55:55;;;;;;;0.70;0.60;;;9.50;99.90;;;;;;4989139;28;20277;-73
2023/01/16 12:58:26;;;;;;;0.57;0.57;;;9.50;99.90;;;;;;4989280;28;20297;-74
2023/01/16 13:01:09;;;;;;;2.43;0.47;;;9.60;99.90;;;;;;4989234;28;20508;-74
2023/01/16 13:03:40;;;;;;;0.70;0.60;;;9.60;99.90;;;;;;4988654;28;20289;-74
2023/01/16 13:06:11;;;;;;;0.87;0.40;;;9.60;99.90;;;;;;4989142;28;20217;-73
2023/01/16 13:08:43;;;;;;;1.03;0.60;;;9.50;99.90;;;;;;4988710;28;20301;-74
2023/01/16 13:14:10;;;;;;;1.00;0.53;;;9.40;99.90;;;;;;4988789;28;20233;-74
2023/01/16 13:16:41;;;;;;;1.40;0.60;;;9.30;99.90;;;;;;4988533;28;20720;-73
2023/01/16 13:19:15;;;;;;;0.60;0.60;;;9.20;99.90;;;;;;4988768;28;20302;-74
2023/01/16 13:21:52;;;;;;;1.90;0.60;;;9.20;99.90;;;;;;4988593;28;20657;-74
2023/01/16 13:24:24;;;;;;;0.77;0.60;;;9.10;99.90;;;;;;4988615;28;20264;-74
2023/01/16 13:27:01;;;;;;;1.37;0.60;;;9.00;99.90;;;;;;4988648;28;20233;-74
2023/01/16 13:29:34;;;;;;;1.43;0.60;;;9.00;99.90;;;;;;4988802;28;20237;-74
2023/01/16 13:32:12;;;;;;;1.37;0.70;;;9.00;99.90;;;;;;4988773;28;20222;-74
2023/01/16 13:34:43;;;;;;;2.30;0.80;;;8.90;99.90;;;;;;4988430;28;20232;-74
2023/01/16 13:37:42;;;;;;;1.30;0.70;;;8.90;99.90;;;;;;4988779;28;20202;-74
2023/01/16 13:40:28;;;;;;;1.10;0.53;;;8.80;99.90;;;;;;4988528;28;20203;-73
2023/01/16 13:45:47;;;;;;;1.80;0.63;;;8.70;99.90;;;;;;4988392;28;20194;-75
2023/01/16 13:45:47;;;;;;;1.87;0.73;;;8.70;99.90;;;;;;4985273;28;20214;-73
2023/01/16 13:48:17;;;;;;;0.77;0.60;;;8.60;99.90;;;;;;4968795;28;20214;-73
2023/01/16 13:50:50;;;;;;;2.63;0.70;;;8.60;99.90;;;;;;4969093;28;20210;-73
2023/01/16 13:53:19;;;;;;;0.73;0.60;;;8.60;99.90;;;;;;4968468;28;20229;-73
2023/01/16 13:55:46;;;;;;;0.90;0.90;;;8.60;99.90;;;;;;4968824;28;20211;-74
2023/01/16 13:58:20;;;;;;;1.40;0.50;;;8.50;99.90;;;;;;4968931;28;20253;-74
2023/01/16 14:00:56;;;;;;;0.67;0.67;;;8.50;99.90;;;;;;4968731;28;20285;-74
2023/01/16 14:03:24;;;;;;;0.90;0.70;;;8.40;99.90;;;;;;4968331;28;20775;-74
2023/01/16 14:05:53;;;;;;;0.90;0.63;;;8.40;99.90;;;;;;4968682;28;20262;-74
2023/01/16 14:11:33;;;;;;;2.00;0.90;;;8.30;99.90;;;;;;4971028;28;20206;-74
2023/01/16 14:17:07;;;;;;;2.13;1.03;;;8.20;99.90;;;;;;4986984;28;20247;-73
2023/01/16 14:19:38;;;;;;;1.73;0.73;;;8.20;99.90;;;;;;4988887;28;20731;-73
2023/01/16 14:24:50;;;;;;;2.00;0.90;;;8.20;99.90;;;;;;4993042;28;20560;-74
2023/01/16 14:27:19;;;;;;;0.93;0.70;;;8.10;99.90;;;;;;4994511;28;20198;-73
2023/01/16 14:29:50;;;;;;;4.33;0.70;;;8.10;99.90;;;;;;4994226;28;20312;-74